createdAt,value
2018-04-07T00:00:20.947Z,16.10
2018-04-07T00:02:48.405Z,14.80
2018-04-07T00:05:15.858Z,14.93
2018-04-07T00:07:43.610Z,14.37
2018-04-07T00:10:11.546Z,13.43
2018-04-07T00:12:39.159Z,12.55
2018-04-07T00:15:07.231Z,12.27
2018-04-07T00:17:34.694Z,12.40
2018-04-07T00:20:02.150Z,12.77
2018-04-07T00:22:29.619Z,11.97
2018-04-07T00:24:57.841Z,11.88
2018-04-07T00:27:25.310Z,12.37
2018-04-07T00:29:52.773Z,12.17
2018-04-07T00:32:20.950Z,11.20
2018-04-07T00:34:49.025Z,11.60
2018-04-07T00:37:16.806Z,12.70
2018-04-07T00:39:45.542Z,12.48
2018-04-07T00:42:13.023Z,11.27
2018-04-07T00:44:40.490Z,11.97
2018-04-07T00:47:08.465Z,12.00
2018-04-07T00:49:36.035Z,12.13
2018-04-07T00:52:03.499Z,12.43
2018-04-07T00:54:31.750Z,13.27
2018-04-07T00:56:59.219Z,13.60
2018-04-07T00:59:26.672Z,13.55
2018-04-07T01:01:54.789Z,15.02
2018-04-07T01:04:22.378Z,15.73
2018-04-07T01:06:49.881Z,15.13
2018-04-07T01:09:18.786Z,17.58
2018-04-07T01:11:47.051Z,18.85
2018-04-07T01:14:16.095Z,20.37
2018-04-07T01:16:44.111Z,22.83
2018-04-07T01:19:11.574Z,26.37
2018-04-07T01:21:40.315Z,25.73
2018-04-07T01:24:07.981Z,27.87
2018-04-07T01:26:35.550Z,29.17
2018-04-07T01:29:03.045Z,28.67
2018-04-07T01:31:31.278Z,27.67
2018-04-07T01:33:59.101Z,27.00
2018-04-07T01:36:27.673Z,26.17
2018-04-07T01:38:56.255Z,26.40
2018-04-07T01:41:23.705Z,24.33
2018-04-07T01:43:51.171Z,24.08
2018-04-07T01:46:18.642Z,22.90
2018-04-07T01:48:47.231Z,22.60
2018-04-07T01:51:15.454Z,23.40
2018-04-07T01:53:42.946Z,23.80
2018-04-07T01:56:11.183Z,24.25
2018-04-07T01:58:38.685Z,26.35
2018-04-07T02:01:06.923Z,29.85
2018-04-07T02:03:34.834Z,31.60
2018-04-07T02:06:03.621Z,32.17
2018-04-07T02:08:31.079Z,34.03
2018-04-07T02:10:59.324Z,37.28
2018-04-07T02:13:26.790Z,35.13
2018-04-07T02:15:55.694Z,36.88
2018-04-07T02:18:23.152Z,37.80
2018-04-07T02:20:50.823Z,39.15
2018-04-07T02:23:20.426Z,37.63
2018-04-07T02:25:48.929Z,36.92
2018-04-07T02:28:17.438Z,35.88
2018-04-07T02:30:45.406Z,35.53
2018-04-07T02:33:14.206Z,35.13
2018-04-07T02:35:41.663Z,34.78
2018-04-07T02:38:09.276Z,34.47
2018-04-07T02:40:37.212Z,36.40
2018-04-07T02:43:05.475Z,37.88
2018-04-07T02:45:32.946Z,35.63
2018-04-07T02:48:00.411Z,37.20
2018-04-07T02:50:27.880Z,36.03
2018-04-07T02:52:55.640Z,35.60
2018-04-07T02:55:23.110Z,37.38
2018-04-07T02:57:50.574Z,37.22
2018-04-07T03:00:18.557Z,35.45
2018-04-07T03:02:46.102Z,36.17
2018-04-07T03:05:14.336Z,34.00
2018-04-07T03:07:41.834Z,33.80
2018-04-07T03:10:10.788Z,32.95
2018-04-07T03:12:38.258Z,32.53
2018-04-07T03:15:05.719Z,32.13
2018-04-07T03:17:33.784Z,30.50
2018-04-07T03:20:01.250Z,28.83
2018-04-07T03:22:28.717Z,28.15
2018-04-07T03:24:56.621Z,26.55
2018-04-07T03:27:24.846Z,29.17
2018-04-07T03:29:53.117Z,26.37
2018-04-07T03:32:22.190Z,24.73
2018-04-07T03:34:50.162Z,26.27
2018-04-07T03:37:17.687Z,25.37
2018-04-07T03:39:45.185Z,24.60
2018-04-07T03:42:13.361Z,24.35
2018-04-07T03:44:40.825Z,23.45
2018-04-07T03:47:08.290Z,21.45
2018-04-07T03:49:35.755Z,20.83
2018-04-07T03:52:03.215Z,22.40
2018-04-07T03:54:30.675Z,22.17
2018-04-07T03:56:58.140Z,22.65
2018-04-07T03:59:25.644Z,24.42
2018-04-07T04:01:59.619Z,25.42
2018-04-07T04:04:27.091Z,26.08
2018-04-07T04:06:54.551Z,27.73
2018-04-07T04:09:23.199Z,27.52
2018-04-07T04:11:50.756Z,28.52
2018-04-07T04:14:18.316Z,28.80
2018-04-07T04:16:45.774Z,28.62
2018-04-07T04:19:13.234Z,29.08
2018-04-07T04:21:40.698Z,30.55
2018-04-07T04:24:08.866Z,34.70
2018-04-07T04:26:36.338Z,36.25
2018-04-07T04:29:03.807Z,44.35
2018-04-07T04:31:31.275Z,45.80
2018-04-07T04:33:58.850Z,51.90
2018-04-07T04:36:27.054Z,57.53
2018-04-07T04:38:56.084Z,53.67
2018-04-07T04:41:23.560Z,52.15
2018-04-07T04:43:51.062Z,54.05
2018-04-07T04:46:19.414Z,55.55
2018-04-07T04:48:47.871Z,52.95
2018-04-07T04:51:15.330Z,50.72
2018-04-07T04:53:43.627Z,49.95
2018-04-07T04:56:11.450Z,46.58
2018-04-07T04:58:39.721Z,46.92
2018-04-07T05:01:08.486Z,45.92
2018-04-07T05:03:36.734Z,45.83
2018-04-07T05:06:05.327Z,40.70
2018-04-07T05:08:32.791Z,39.92
2018-04-07T05:11:01.026Z,42.90
2018-04-07T05:13:29.554Z,38.80
2018-04-07T05:15:57.802Z,35.13
2018-04-07T05:18:25.262Z,29.60
2018-04-07T05:20:52.788Z,28.20
2018-04-07T05:23:20.899Z,22.85
2018-04-07T05:25:48.886Z,22.25
2018-04-07T05:28:17.150Z,17.45
2018-04-07T05:30:45.342Z,17.58
2018-04-07T05:33:13.978Z,17.42
2018-04-07T05:35:41.438Z,17.52
2018-04-07T05:38:09.840Z,17.00
2018-04-07T05:40:37.631Z,16.17
2018-04-07T05:43:05.083Z,16.37
2018-04-07T05:45:32.542Z,15.57
2018-04-07T05:48:01.675Z,14.07
2018-04-07T05:50:29.142Z,14.80
2018-04-07T05:52:56.610Z,14.73
2018-04-07T05:55:24.392Z,15.00
2018-04-07T05:57:51.871Z,13.07
2018-04-07T06:00:19.325Z,12.87
2018-04-07T06:02:46.781Z,11.90
2018-04-07T06:05:14.343Z,12.60
2018-04-07T06:07:42.418Z,11.65
2018-04-07T06:10:09.878Z,12.60
2018-04-07T06:12:38.254Z,12.40
2018-04-07T06:15:06.526Z,12.20
2018-04-07T06:17:33.981Z,12.40
2018-04-07T06:20:01.442Z,12.80
2018-04-07T06:22:29.005Z,12.90
2018-04-07T06:24:56.464Z,11.63
2018-04-07T06:27:23.935Z,11.60
2018-04-07T06:29:51.390Z,11.77
2018-04-07T06:32:18.856Z,11.97
2018-04-07T06:34:46.314Z,11.57
2018-04-07T06:37:14.595Z,12.50
2018-04-07T06:39:42.084Z,12.00
2018-04-07T06:42:09.548Z,12.27
2018-04-07T06:44:37.320Z,12.77
2018-04-07T06:47:04.766Z,12.43
2018-04-07T06:49:32.231Z,13.30
2018-04-07T06:51:59.731Z,15.47
2018-04-07T06:54:27.186Z,15.97
2018-04-07T06:56:54.655Z,15.60
2018-04-07T06:59:22.115Z,15.13
2018-04-07T07:01:49.582Z,16.83
2018-04-07T07:04:17.807Z,16.77
2018-04-07T07:06:45.474Z,17.27
2018-04-07T07:09:12.943Z,18.37
2018-04-07T07:11:40.440Z,17.63
2018-04-07T07:14:08.203Z,16.63
2018-04-07T07:16:36.698Z,15.57
2018-04-07T07:19:05.487Z,15.53
2018-04-07T07:21:33.094Z,14.70
2018-04-07T07:24:00.550Z,14.37
2018-04-07T07:26:28.164Z,13.53
2018-04-07T07:28:56.126Z,12.60
2018-04-07T07:31:24.374Z,11.40
2018-04-07T07:33:52.474Z,9.93
2018-04-07T07:36:21.059Z,9.67
2018-04-07T07:38:49.282Z,9.57
2018-04-07T07:41:18.225Z,8.47
2018-04-07T07:43:46.513Z,9.67
2018-04-07T07:46:14.426Z,9.70
2018-04-07T07:48:41.882Z,9.73
2018-04-07T07:51:09.351Z,9.10
2018-04-07T07:53:37.514Z,9.43
2018-04-07T07:56:04.999Z,8.13
2018-04-07T07:58:33.738Z,8.30
2018-04-07T08:01:01.250Z,7.60
2018-04-07T08:03:28.716Z,8.47
2018-04-07T08:05:56.231Z,7.33
2018-04-07T08:08:23.678Z,6.83
2018-04-07T08:10:51.526Z,7.63
2018-04-07T08:13:19.774Z,7.07
2018-04-07T08:15:47.433Z,6.63
2018-04-07T08:18:14.890Z,6.43
2018-04-07T08:20:42.772Z,7.57
2018-04-07T08:23:10.171Z,7.30
2018-04-07T08:25:38.495Z,6.97
2018-04-07T08:28:05.950Z,5.87
2018-04-07T08:30:33.394Z,6.23
2018-04-07T08:33:00.963Z,5.97
2018-04-07T08:35:28.826Z,6.30
2018-04-07T08:37:56.399Z,5.63
2018-04-07T08:40:23.854Z,6.27
2018-04-07T08:42:51.312Z,5.83
2018-04-07T08:45:18.914Z,5.20
2018-04-07T08:47:47.010Z,5.13
2018-04-07T08:50:15.318Z,4.53
2018-04-07T08:52:43.479Z,5.27
2018-04-07T08:55:10.937Z,4.87
2018-04-07T08:57:38.385Z,4.30
2018-04-07T09:00:05.851Z,5.20
2018-04-07T09:02:34.073Z,5.67
2018-04-07T09:05:01.606Z,4.60
2018-04-07T09:07:29.778Z,4.63
2018-04-07T09:09:57.338Z,4.40
2018-04-07T09:12:25.373Z,4.00
2018-04-07T09:14:52.815Z,4.57
2018-04-07T09:17:20.272Z,4.23
2018-04-07T09:19:47.726Z,3.97
2018-04-07T09:22:17.366Z,4.97
2018-04-07T09:24:44.834Z,4.67
2018-04-07T09:27:12.711Z,5.80
2018-04-07T09:29:40.571Z,5.77
2018-04-07T09:32:08.103Z,5.13
2018-04-07T09:34:35.547Z,5.20
2018-04-07T09:37:03.063Z,5.33
2018-04-07T09:39:30.526Z,5.33
2018-04-07T09:41:57.980Z,5.40
2018-04-07T09:44:25.501Z,5.00
2018-04-07T09:46:52.945Z,5.03
2018-04-07T09:49:20.393Z,4.57
2018-04-07T09:51:47.918Z,4.67
2018-04-07T09:54:16.031Z,5.23
2018-04-07T09:56:43.487Z,5.00
2018-04-07T09:59:11.321Z,4.87
2018-04-07T10:01:39.292Z,5.23
2018-04-07T10:04:06.866Z,5.10
2018-04-07T10:06:35.407Z,5.27
2018-04-07T10:09:02.874Z,4.40
2018-04-07T10:11:30.335Z,4.57
2018-04-07T10:13:58.234Z,4.63
2018-04-07T10:16:26.454Z,4.40
2018-04-07T10:18:54.469Z,4.60
2018-04-07T10:21:22.317Z,4.30
2018-04-07T10:23:49.768Z,4.90
2018-04-07T10:26:18.063Z,4.13
2018-04-07T10:28:45.509Z,4.20
2018-04-07T10:31:13.085Z,4.30
2018-04-07T10:33:40.542Z,4.40
2018-04-07T10:36:08.004Z,5.03
2018-04-07T10:38:35.463Z,4.67
2018-04-07T10:41:03.687Z,4.30
2018-04-07T10:43:31.142Z,4.50
2018-04-07T10:45:58.911Z,4.07
2018-04-07T10:48:26.411Z,4.37
2018-04-07T10:50:53.854Z,3.83
2018-04-07T10:53:21.318Z,4.23
2018-04-07T10:55:48.835Z,4.13
2018-04-07T10:58:16.343Z,4.00
2018-04-07T11:00:44.294Z,4.10
2018-04-07T11:03:12.402Z,3.83
2018-04-07T11:05:39.866Z,3.83
2018-04-07T11:08:08.098Z,4.00
2018-04-07T11:10:35.586Z,4.40
2018-04-07T11:13:03.802Z,4.30
2018-04-07T11:15:31.255Z,3.87
2018-04-07T11:17:59.482Z,3.80
2018-04-07T11:20:27.032Z,3.80
2018-04-07T11:22:54.482Z,3.33
2018-04-07T11:25:21.963Z,3.40
2018-04-07T11:27:49.814Z,3.70
2018-04-07T11:30:18.952Z,4.07
2018-04-07T11:32:47.179Z,3.60
2018-04-07T11:35:15.382Z,3.57
2018-04-07T11:37:42.945Z,3.80
2018-04-07T11:40:12.385Z,3.50
2018-04-07T11:42:39.973Z,3.83
2018-04-07T11:45:07.448Z,3.77
2018-04-07T11:47:35.679Z,2.80
2018-04-07T11:50:03.914Z,3.80
2018-04-07T11:52:31.598Z,3.73
2018-04-07T11:54:59.854Z,3.90
2018-04-07T11:57:27.422Z,3.17
2018-04-07T11:59:55.186Z,3.93
2018-04-07T12:02:23.325Z,4.10
2018-04-07T12:04:51.538Z,3.47
2018-04-07T12:07:18.995Z,3.90
2018-04-07T12:09:46.554Z,3.83
2018-04-07T12:12:15.277Z,3.80
2018-04-07T12:14:43.494Z,4.37
2018-04-07T12:17:11.302Z,3.73
2018-04-07T12:19:39.618Z,3.60
2018-04-07T12:22:07.874Z,4.30
2018-04-07T12:24:37.050Z,4.07
2018-04-07T12:27:04.819Z,3.70
2018-04-07T12:29:33.078Z,4.50
2018-04-07T12:32:01.078Z,3.97
2018-04-07T12:34:30.014Z,3.83
2018-04-07T12:36:57.470Z,4.00
2018-04-07T12:39:25.207Z,3.93
2018-04-07T12:41:53.337Z,4.10
2018-04-07T12:44:20.998Z,4.40
2018-04-07T12:46:48.450Z,3.90
2018-04-07T12:49:16.218Z,3.83
2018-04-07T12:51:43.741Z,3.87
2018-04-07T12:54:11.363Z,3.87
2018-04-07T12:56:39.592Z,4.20
2018-04-07T12:59:07.051Z,4.33
2018-04-07T13:01:34.502Z,4.23
2018-04-07T13:04:02.166Z,4.03
2018-04-07T13:06:29.626Z,5.23
2018-04-07T13:08:57.074Z,5.63
2018-04-07T13:11:24.570Z,5.60
2018-04-07T13:13:52.642Z,6.10
2018-04-07T13:16:21.023Z,5.87
2018-04-07T13:18:49.402Z,6.17
2018-04-07T13:21:16.858Z,7.33
2018-04-07T13:23:45.035Z,6.37
2018-04-07T13:26:12.491Z,6.47
2018-04-07T13:28:40.114Z,5.80
2018-04-07T13:31:07.762Z,5.93
2018-04-07T13:33:38.617Z,7.00
2018-04-07T13:36:04.062Z,7.17
2018-04-07T13:38:32.750Z,6.57
2018-04-07T13:41:01.266Z,6.80
2018-04-07T13:43:29.494Z,5.93
2018-04-07T13:45:57.899Z,6.30
2018-04-07T13:48:25.743Z,6.50
2018-04-07T13:50:53.219Z,6.57
2018-04-07T13:53:20.671Z,7.50
2018-04-07T13:55:48.986Z,6.60
2018-04-07T13:58:17.230Z,7.00
2018-04-07T14:00:44.706Z,7.40
2018-04-07T14:03:13.183Z,7.13
2018-04-07T14:05:40.740Z,6.60
2018-04-07T14:08:09.698Z,7.30
2018-04-07T14:10:37.375Z,6.70
2018-04-07T14:13:05.450Z,7.30
2018-04-07T14:15:32.906Z,7.40
2018-04-07T14:18:01.199Z,7.20
2018-04-07T14:20:28.666Z,7.37
2018-04-07T14:22:56.729Z,8.60
2018-04-07T14:25:24.178Z,6.87
2018-04-07T14:27:51.637Z,7.50
2018-04-07T14:30:19.093Z,8.20
2018-04-07T14:32:47.061Z,7.80
2018-04-07T14:35:14.519Z,7.30
2018-04-07T14:37:41.970Z,7.27
2018-04-07T14:40:10.059Z,7.57
2018-04-07T14:42:37.880Z,7.13
2018-04-07T14:45:05.343Z,6.60
2018-04-07T14:47:32.791Z,6.50
2018-04-07T14:50:00.670Z,6.40
2018-04-07T14:52:28.134Z,5.97
2018-04-07T14:54:57.090Z,6.07
2018-04-07T14:57:25.634Z,6.40
2018-04-07T14:59:53.107Z,6.20
2018-04-07T15:02:20.555Z,5.97
2018-04-07T15:04:48.124Z,6.53
2018-04-07T15:07:15.635Z,7.10
2018-04-07T15:09:43.079Z,6.57
2018-04-07T15:12:10.654Z,7.00
2018-04-07T15:14:38.093Z,5.77
2018-04-07T15:17:06.222Z,5.47
2018-04-07T15:19:34.542Z,6.10
2018-04-07T15:22:02.870Z,5.97
2018-04-07T15:24:30.333Z,6.27
2018-04-07T15:26:58.626Z,5.83
2018-04-07T15:29:26.098Z,5.33
2018-04-07T15:31:53.547Z,5.90
2018-04-07T15:34:21.727Z,6.40
2018-04-07T15:36:49.179Z,5.87
2018-04-07T15:39:17.306Z,5.27
2018-04-07T15:41:46.234Z,5.60
2018-04-07T15:44:13.698Z,5.20
2018-04-07T15:46:41.154Z,5.00
2018-04-07T15:49:09.693Z,4.97
2018-04-07T15:51:37.189Z,5.10
2018-04-07T15:54:04.710Z,5.23
2018-04-07T15:56:32.953Z,5.07
2018-04-07T15:59:01.602Z,5.67
2018-04-07T16:01:29.054Z,5.53
2018-04-07T16:03:56.503Z,5.83
2018-04-07T16:06:23.969Z,4.83
2018-04-07T16:08:51.424Z,5.27
2018-04-07T16:11:18.882Z,5.50
2018-04-07T16:13:46.397Z,6.47
2018-04-07T16:16:13.808Z,5.30
2018-04-07T16:18:41.258Z,5.87
2018-04-07T16:21:10.300Z,6.33
2018-04-07T16:23:38.513Z,5.27
2018-04-07T16:26:05.986Z,5.47
2018-04-07T16:28:33.694Z,6.40
2018-04-07T16:31:01.905Z,6.00
2018-04-07T16:33:29.464Z,5.80
2018-04-07T16:35:57.299Z,6.13
2018-04-07T16:38:25.950Z,5.87
2018-04-07T16:40:53.518Z,5.90
2018-04-07T16:43:20.970Z,5.87
2018-04-07T16:45:48.421Z,6.03
2018-04-07T16:48:15.952Z,6.63
2018-04-07T16:50:43.705Z,5.40
2018-04-07T16:53:11.123Z,5.67
2018-04-07T16:55:38.582Z,5.57
2018-04-07T16:58:06.038Z,5.77
2018-04-07T17:00:33.490Z,5.20
2018-04-07T17:03:01.046Z,5.50
2018-04-07T17:05:28.499Z,5.20
2018-04-07T17:07:55.954Z,4.63
2018-04-07T17:10:24.138Z,4.90
2018-04-07T17:12:51.587Z,5.23
2018-04-07T17:15:19.600Z,5.40
2018-04-07T17:17:47.846Z,5.50
2018-04-07T17:20:15.297Z,4.63
2018-04-07T17:22:42.822Z,5.07
2018-04-07T17:25:10.322Z,5.23
2018-04-07T17:27:37.770Z,4.63
2018-04-07T17:30:05.239Z,5.13
2018-04-07T17:32:33.511Z,5.30
2018-04-07T17:35:00.966Z,5.10
2018-04-07T17:37:28.423Z,5.70
2018-04-07T17:39:56.612Z,6.67
2018-04-07T17:42:24.060Z,5.60
2018-04-07T17:44:51.516Z,6.03
2018-04-07T17:47:19.204Z,5.70
2018-04-07T17:49:48.903Z,5.67
2018-04-07T17:52:17.707Z,5.30
2018-04-07T17:54:45.962Z,5.50
2018-04-07T17:57:13.419Z,5.57
2018-04-07T17:59:40.871Z,5.50
2018-04-07T18:02:08.345Z,5.40
2018-04-07T18:04:36.298Z,5.37
2018-04-07T18:07:03.876Z,5.20
2018-04-07T18:09:31.338Z,5.87
2018-04-07T18:11:58.795Z,6.43
2018-04-07T18:14:26.438Z,5.93
2018-04-07T18:16:55.546Z,6.40
2018-04-07T18:19:23.070Z,5.80
2018-04-07T18:21:51.634Z,6.47
2018-04-07T18:24:19.894Z,5.67
2018-04-07T18:26:48.122Z,6.87
2018-04-07T18:29:15.590Z,7.47
2018-04-07T18:31:43.075Z,6.07
2018-04-07T18:34:12.163Z,7.00
2018-04-07T18:36:39.725Z,6.40
2018-04-07T18:39:08.265Z,6.80
2018-04-07T18:41:35.773Z,6.80
2018-04-07T18:44:03.171Z,7.17
2018-04-07T18:46:31.458Z,7.37
2018-04-07T18:48:58.915Z,7.40
2018-04-07T18:51:26.362Z,7.73
2018-04-07T18:53:53.831Z,6.40
2018-04-07T18:56:21.286Z,6.70
2018-04-07T18:58:48.751Z,6.90
2018-04-07T19:01:16.222Z,17.07
2018-04-07T19:03:43.684Z,12.83
2018-04-07T19:06:11.143Z,14.17
2018-04-07T19:08:38.618Z,16.27
2018-04-07T19:11:06.086Z,18.53
2018-04-07T19:13:33.546Z,12.57
2018-04-07T19:16:01.767Z,9.63
2018-04-07T19:18:29.260Z,14.00
2018-04-07T19:20:57.074Z,14.23
2018-04-07T19:23:24.541Z,7.63
2018-04-07T19:25:51.986Z,10.90
2018-04-07T19:28:19.455Z,9.30
2018-04-07T19:30:46.928Z,9.03
2018-04-07T19:33:14.395Z,8.03
2018-04-07T19:35:41.878Z,8.87
2018-04-07T19:38:09.974Z,8.17
2018-04-07T19:40:38.195Z,8.80
2018-04-07T19:43:05.661Z,8.73
2018-04-07T19:45:33.119Z,16.70
2018-04-07T19:48:00.610Z,12.50
2018-04-07T19:50:28.092Z,13.37
2018-04-07T19:52:56.315Z,10.23
2018-04-07T19:55:23.782Z,10.53
2018-04-07T19:57:51.250Z,10.20
2018-04-07T20:00:19.380Z,10.57
2018-04-07T20:02:47.320Z,8.63
2018-04-07T20:05:15.554Z,12.43
2018-04-07T20:07:43.031Z,15.30
2018-04-07T20:10:11.311Z,9.77
2018-04-07T20:12:38.778Z,8.17
2018-04-07T20:15:06.450Z,9.37
2018-04-07T20:17:36.249Z,8.00
2018-04-07T20:20:03.711Z,8.10
2018-04-07T20:22:31.175Z,7.83
2018-04-07T20:24:59.493Z,9.37
2018-04-07T20:27:26.943Z,8.63
2018-04-07T20:29:54.412Z,7.37
2018-04-07T20:32:21.873Z,7.20
2018-04-07T20:34:49.338Z,7.63
2018-04-07T20:37:16.846Z,8.23
2018-04-07T20:39:45.002Z,7.40
2018-04-07T20:42:24.294Z,10.37
2018-04-07T20:44:52.902Z,11.47
2018-04-07T20:47:23.389Z,9.00
2018-04-07T20:49:52.034Z,11.23
2018-04-07T20:52:19.487Z,8.93
2018-04-07T20:54:46.966Z,12.93
2018-04-07T20:57:14.407Z,6.87
2018-04-07T20:59:43.279Z,7.37
2018-04-07T21:02:10.754Z,6.57
2018-04-07T21:04:38.727Z,6.30
2018-04-07T21:07:06.653Z,5.93
2018-04-07T21:09:34.082Z,6.40
2018-04-07T21:12:02.311Z,6.50
2018-04-07T21:14:30.318Z,6.73
2018-04-07T21:16:57.790Z,7.10
2018-04-07T21:19:26.062Z,7.37
2018-04-07T21:21:54.796Z,6.43
2018-04-07T21:24:22.335Z,6.27
2018-04-07T21:26:49.901Z,8.40
2018-04-07T21:29:17.343Z,8.57
2018-04-07T21:31:44.882Z,8.27
2018-04-07T21:34:13.819Z,8.17
2018-04-07T21:36:41.270Z,8.73
2018-04-07T21:39:09.594Z,13.07
2018-04-07T21:41:37.054Z,8.33
2018-04-07T21:44:04.518Z,8.13
2018-04-07T21:46:31.969Z,8.60
2018-04-07T21:48:59.430Z,8.00
2018-04-07T21:51:26.890Z,9.00
2018-04-07T21:53:54.686Z,10.87
2018-04-07T21:56:22.922Z,9.20
2018-04-07T21:58:50.814Z,8.67
2018-04-07T22:01:19.090Z,10.17
2018-04-07T22:03:47.302Z,9.90
2018-04-07T22:06:14.763Z,8.77
2018-04-07T22:08:42.967Z,7.27
2018-04-07T22:11:11.228Z,8.07
2018-04-07T22:13:40.042Z,8.57
2018-04-07T22:16:07.509Z,8.73
2018-04-07T22:18:34.972Z,8.60
2018-04-07T22:21:02.515Z,7.87
2018-04-07T22:23:29.984Z,9.30
2018-04-07T22:25:57.437Z,9.50
2018-04-07T22:28:25.414Z,9.63
2018-04-07T22:30:53.571Z,9.67
2018-04-07T22:33:21.230Z,9.43
2018-04-07T22:35:48.712Z,10.23
2018-04-07T22:38:16.575Z,11.93
2018-04-07T22:40:45.339Z,9.00
2018-04-07T22:43:12.902Z,8.30
2018-04-07T22:45:40.826Z,10.50
2018-04-07T22:48:08.278Z,8.50
2018-04-07T22:50:36.518Z,9.03
2018-04-07T22:53:03.979Z,7.80
2018-04-07T22:55:31.534Z,8.13
2018-04-07T22:57:59.450Z,7.80
2018-04-07T23:00:26.907Z,9.17
2018-04-07T23:02:54.538Z,9.23
2018-04-07T23:05:22.770Z,8.70
2018-04-07T23:07:50.235Z,9.13
2018-04-07T23:10:17.686Z,9.37
2018-04-07T23:12:45.147Z,9.73
2018-04-07T23:15:12.618Z,10.20
2018-04-07T23:17:40.385Z,10.27
2018-04-07T23:20:07.970Z,10.20
2018-04-07T23:22:35.430Z,10.30
2018-04-07T23:25:02.908Z,17.70
2018-04-07T23:27:31.662Z,11.10
2018-04-07T23:29:59.133Z,11.03
2018-04-07T23:32:26.745Z,11.40
2018-04-07T23:34:55.040Z,10.50
2018-04-07T23:37:22.872Z,10.33
2018-04-07T23:39:51.102Z,9.37
2018-04-07T23:42:18.566Z,9.53
2018-04-07T23:44:46.030Z,10.27
2018-04-07T23:47:14.309Z,9.67
2018-04-07T23:49:41.986Z,9.60
2018-04-07T23:52:10.222Z,9.80
2018-04-07T23:54:37.681Z,9.50
2018-04-07T23:57:05.250Z,10.57
2018-04-07T23:59:32.714Z,10.27
